sensor_id;sensor_type;location;lat;lon;timestamp;pressure;altitude;pressure_sealevel;temperature;humidity
59787;BME280;45672;51.612;5.536;2023-08-07T00:02:24;101136.16;;;13.46;100.00
59787;BME280;45672;51.612;5.536;2023-08-07T00:04:49;101129.13;;;13.45;100.00
59787;BME280;45672;51.612;5.536;2023-08-07T00:07:15;101136.66;;;13.50;100.00
59787;BME280;45672;51.612;5.536;2023-08-07T00:09:40;101136.31;;;13.53;100.00
59787;BME280;45672;51.612;5.536;2023-08-07T00:12:06;101133.81;;;13.51;100.00
59787;BME280;45672;51.612;5.536;2023-08-07T00:14:31;101138.00;;;13.54;100.00
59787;BME280;45672;51.612;5.536;2023-08-07T00:16:56;101130.97;;;13.53;100.00
59787;BME280;45672;51.612;5.536;2023-08-07T00:19:21;101126.66;;;13.52;100.00
59787;BME280;45672;51.612;5.536;2023-08-07T00:21:47;101128.13;;;13.54;100.00
59787;BME280;45672;51.612;5.536;2023-08-07T00:24:12;101135.50;;;13.52;100.00
59787;BME280;45672;51.612;5.536;2023-08-07T00:26:37;101133.63;;;13.53;100.00
59787;BME280;45672;51.612;5.536;2023-08-07T00:29:03;101138.84;;;13.46;100.00
59787;BME280;45672;51.612;5.536;2023-08-07T00:31:28;101138.84;;;13.38;100.00
59787;BME280;45672;51.612;5.536;2023-08-07T00:33:59;101128.75;;;13.32;100.00
59787;BME280;45672;51.612;5.536;2023-08-07T00:36:25;101135.13;;;13.31;100.00
59787;BME280;45672;51.612;5.536;2023-08-07T00:38:50;101138.78;;;13.30;100.00
59787;BME280;45672;51.612;5.536;2023-08-07T00:41:17;101135.09;;;13.22;100.00
59787;BME280;45672;51.612;5.536;2023-08-07T00:43:43;101146.28;;;13.26;100.00
59787;BME280;45672;51.612;5.536;2023-08-07T00:46:08;101139.78;;;13.28;100.00
59787;BME280;45672;51.612;5.536;2023-08-07T00:48:34;101142.63;;;13.27;100.00
59787;BME280;45672;51.612;5.536;2023-08-07T00:50:59;101138.63;;;13.31;100.00
59787;BME280;45672;51.612;5.536;2023-08-07T00:53:25;101142.81;;;13.34;100.00
59787;BME280;45672;51.612;5.536;2023-08-07T00:55:50;101136.50;;;13.35;100.00
59787;BME280;45672;51.612;5.536;2023-08-07T00:58:16;101145.16;;;13.37;100.00
59787;BME280;45672;51.612;5.536;2023-08-07T01:00:42;101134.78;;;13.34;100.00
59787;BME280;45672;51.612;5.536;2023-08-07T01:03:08;101134.44;;;13.28;100.00
59787;BME280;45672;51.612;5.536;2023-08-07T01:05:34;101132.09;;;13.34;100.00
59787;BME280;45672;51.612;5.536;2023-08-07T01:07:59;101143.31;;;13.37;100.00
59787;BME280;45672;51.612;5.536;2023-08-07T01:10:35;101142.50;;;13.37;100.00
59787;BME280;45672;51.612;5.536;2023-08-07T01:13:28;101144.50;;;13.43;100.00
59787;BME280;45672;51.612;5.536;2023-08-07T01:15:59;101151.34;;;13.45;100.00
59787;BME280;45672;51.612;5.536;2023-08-07T01:18:27;101145.84;;;13.47;100.00
59787;BME280;45672;51.612;5.536;2023-08-07T01:20:52;101150.84;;;13.50;100.00
59787;BME280;45672;51.612;5.536;2023-08-07T01:23:17;101147.34;;;13.50;100.00
59787;BME280;45672;51.612;5.536;2023-08-07T01:25:43;101141.66;;;13.53;100.00
59787;BME280;45672;51.612;5.536;2023-08-07T01:28:16;101157.34;;;13.56;100.00
59787;BME280;45672;51.612;5.536;2023-08-07T01:30:47;101154.53;;;13.57;100.00
59787;BME280;45672;51.612;5.536;2023-08-07T01:33:21;101162.41;;;13.59;100.00
59787;BME280;45672;51.612;5.536;2023-08-07T01:35:51;101166.06;;;13.58;100.00
59787;BME280;45672;51.612;5.536;2023-08-07T01:38:18;101153.69;;;13.57;100.00
59787;BME280;45672;51.612;5.536;2023-08-07T01:40:46;101161.88;;;13.64;100.00
59787;BME280;45672;51.612;5.536;2023-08-07T01:43:12;101159.69;;;13.67;100.00
59787;BME280;45672;51.612;5.536;2023-08-07T01:45:37;101167.59;;;13.69;100.00
59787;BME280;45672;51.612;5.536;2023-08-07T01:48:03;101167.25;;;13.72;100.00
59787;BME280;45672;51.612;5.536;2023-08-07T01:50:28;101171.91;;;13.70;100.00
59787;BME280;45672;51.612;5.536;2023-08-07T01:52:54;101168.41;;;13.69;100.00
59787;BME280;45672;51.612;5.536;2023-08-07T01:55:20;101172.94;;;13.69;100.00
59787;BME280;45672;51.612;5.536;2023-08-07T01:57:46;101172.59;;;13.72;100.00
59787;BME280;45672;51.612;5.536;2023-08-07T02:00:11;101179.59;;;13.65;100.00
59787;BME280;45672;51.612;5.536;2023-08-07T02:02:37;101170.41;;;13.51;100.00
59787;BME280;45672;51.612;5.536;2023-08-07T02:05:03;101186.38;;;13.34;100.00
59787;BME280;45672;51.612;5.536;2023-08-07T02:07:29;101191.91;;;13.33;100.00
59787;BME280;45672;51.612;5.536;2023-08-07T02:09:55;101177.88;;;13.31;100.00
59787;BME280;45672;51.612;5.536;2023-08-07T02:12:20;101186.25;;;13.36;100.00
59787;BME280;45672;51.612;5.536;2023-08-07T02:14:46;101187.94;;;13.37;100.00
59787;BME280;45672;51.612;5.536;2023-08-07T02:17:11;101187.94;;;13.37;100.00
59787;BME280;45672;51.612;5.536;2023-08-07T02:19:36;101190.28;;;13.40;100.00
59787;BME280;45672;51.612;5.536;2023-08-07T02:22:02;101191.13;;;13.40;100.00
59787;BME280;45672;51.612;5.536;2023-08-07T02:24:27;101179.09;;;13.36;100.00
59787;BME280;45672;51.612;5.536;2023-08-07T02:26:53;101190.94;;;13.42;100.00
59787;BME280;45672;51.612;5.536;2023-08-07T02:29:18;101194.78;;;13.39;100.00
59787;BME280;45672;51.612;5.536;2023-08-07T02:31:43;101190.94;;;13.42;100.00
59787;BME280;45672;51.612;5.536;2023-08-07T02:34:09;101181.91;;;13.43;100.00
59787;BME280;45672;51.612;5.536;2023-08-07T02:36:34;101192.44;;;13.44;100.00
59787;BME280;45672;51.612;5.536;2023-08-07T02:38:59;101194.13;;;13.45;100.00
59787;BME280;45672;51.612;5.536;2023-08-07T02:41:25;101184.28;;;13.46;100.00
59787;BME280;45672;51.612;5.536;2023-08-07T02:43:50;101184.75;;;13.41;100.00
59787;BME280;45672;51.612;5.536;2023-08-07T02:46:15;101190.28;;;13.48;100.00
59787;BME280;45672;51.612;5.536;2023-08-07T02:48:43;101189.28;;;13.49;100.00
59787;BME280;45672;51.612;5.536;2023-08-07T02:51:09;101187.28;;;13.51;100.00
59787;BME280;45672;51.612;5.536;2023-08-07T02:53:34;101191.78;;;13.51;100.00
59787;BME280;45672;51.612;5.536;2023-08-07T02:56:00;101188.25;;;13.50;100.00
59787;BME280;45672;51.612;5.536;2023-08-07T02:58:25;101192.78;;;13.50;100.00
59787;BME280;45672;51.612;5.536;2023-08-07T03:00:50;101192.63;;;13.51;100.00
59787;BME280;45672;51.612;5.536;2023-08-07T03:03:16;101190.94;;;13.50;100.00
59787;BME280;45672;51.612;5.536;2023-08-07T03:05:49;101181.44;;;13.48;100.00
59787;BME280;45672;51.612;5.536;2023-08-07T03:08:15;101183.94;;;13.49;100.00
59787;BME280;45672;51.612;5.536;2023-08-07T03:10:40;101190.81;;;13.52;100.00
59787;BME280;45672;51.612;5.536;2023-08-07T03:13:05;101191.47;;;13.54;100.00
59787;BME280;45672;51.612;5.536;2023-08-07T03:15:31;101183.28;;;13.55;100.00
59787;BME280;45672;51.612;5.536;2023-08-07T03:17:56;101172.09;;;13.52;100.00
59787;BME280;45672;51.612;5.536;2023-08-07T03:20:21;101179.25;;;13.59;100.00
59787;BME280;45672;51.612;5.536;2023-08-07T03:22:47;101178.28;;;13.60;100.00
59787;BME280;45672;51.612;5.536;2023-08-07T03:25:12;101184.63;;;13.59;100.00
59787;BME280;45672;51.612;5.536;2023-08-07T03:27:37;101175.59;;;13.60;100.00
59787;BME280;45672;51.612;5.536;2023-08-07T03:30:03;101176.25;;;13.62;100.00
59787;BME280;45672;51.612;5.536;2023-08-07T03:32:28;101174.44;;;13.63;100.00
59787;BME280;45672;51.612;5.536;2023-08-07T03:34:54;101177.75;;;13.65;100.00
59787;BME280;45672;51.612;5.536;2023-08-07T03:37:19;101172.59;;;13.64;100.00
59787;BME280;45672;51.612;5.536;2023-08-07T03:39:44;101173.75;;;13.61;100.00
59787;BME280;45672;51.612;5.536;2023-08-07T03:42:13;101176.94;;;13.65;100.00
59787;BME280;45672;51.612;5.536;2023-08-07T03:44:39;101169.56;;;13.67;100.00
59787;BME280;45672;51.612;5.536;2023-08-07T03:47:05;101173.25;;;13.66;100.00
59787;BME280;45672;51.612;5.536;2023-08-07T03:49:30;101176.94;;;13.65;100.00
59787;BME280;45672;51.612;5.536;2023-08-07T03:51:56;101174.91;;;13.67;100.00
59787;BME280;45672;51.612;5.536;2023-08-07T03:54:21;101173.25;;;13.66;100.00
59787;BME280;45672;51.612;5.536;2023-08-07T03:56:46;101173.94;;;13.68;100.00
59787;BME280;45672;51.612;5.536;2023-08-07T03:59:13;101171.56;;;13.73;100.00
59787;BME280;45672;51.612;5.536;2023-08-07T04:01:38;101176.59;;;13.68;100.00
59787;BME280;45672;51.612;5.536;2023-08-07T04:04:04;101184.09;;;13.72;100.00
59787;BME280;45672;51.612;5.536;2023-08-07T04:06:29;101178.75;;;13.72;100.00
59787;BME280;45672;51.612;5.536;2023-08-07T04:08:54;101178.09;;;13.70;100.00
59787;BME280;45672;51.612;5.536;2023-08-07T04:11:19;101174.75;;;13.68;100.00
59787;BME280;45672;51.612;5.536;2023-08-07T04:13:45;101169.41;;;13.68;100.00
59787;BME280;45672;51.612;5.536;2023-08-07T04:16:10;101174.75;;;13.68;100.00
59787;BME280;45672;51.612;5.536;2023-08-07T04:18:36;101177.09;;;13.71;100.00
59787;BME280;45672;51.612;5.536;2023-08-07T04:21:01;101179.41;;;13.74;100.00
59787;BME280;45672;51.612;5.536;2023-08-07T04:23:26;101177.59;;;13.75;100.00
59787;BME280;45672;51.612;5.536;2023-08-07T04:25:52;101171.41;;;13.74;100.00
59787;BME280;45672;51.612;5.536;2023-08-07T04:28:18;101172.59;;;13.72;100.00
59787;BME280;45672;51.612;5.536;2023-08-07T04:30:44;101182.78;;;13.76;100.00
59787;BME280;45672;51.612;5.536;2023-08-07T04:33:10;101178.06;;;13.78;100.00
59787;BME280;45672;51.612;5.536;2023-08-07T04:35:36;101186.28;;;13.77;100.00
59787;BME280;45672;51.612;5.536;2023-08-07T04:38:02;101191.63;;;13.77;100.00
59787;BME280;45672;51.612;5.536;2023-08-07T04:40:28;101198.66;;;13.78;100.00
59787;BME280;45672;51.612;5.536;2023-08-07T04:42:53;101196.81;;;13.78;100.00
59787;BME280;45672;51.612;5.536;2023-08-07T04:45:19;101198.47;;;13.79;100.00
59787;BME280;45672;51.612;5.536;2023-08-07T04:47:44;101200.34;;;13.79;100.00
59787;BME280;45672;51.612;5.536;2023-08-07T04:50:10;101202.66;;;13.82;100.00
59787;BME280;45672;51.612;5.536;2023-08-07T04:52:35;101196.31;;;13.83;100.00
59787;BME280;45672;51.612;5.536;2023-08-07T04:55:01;101191.97;;;13.82;100.00
59787;BME280;45672;51.612;5.536;2023-08-07T04:57:26;101200.34;;;13.87;100.00
59787;BME280;45672;51.612;5.536;2023-08-07T04:59:52;101204.31;;;13.91;100.00
59787;BME280;45672;51.612;5.536;2023-08-07T05:02:18;101199.81;;;13.92;100.00
59787;BME280;45672;51.612;5.536;2023-08-07T05:04:43;101211.50;;;13.91;100.00
59787;BME280;45672;51.612;5.536;2023-08-07T05:07:09;101193.47;;;13.85;100.00
59787;BME280;45672;51.612;5.536;2023-08-07T05:09:35;101204.66;;;13.88;100.00
59787;BME280;45672;51.612;5.536;2023-08-07T05:12:00;101206.84;;;13.85;100.00
59787;BME280;45672;51.612;5.536;2023-08-07T05:14:25;101205.34;;;13.90;100.00
59787;BME280;45672;51.612;5.536;2023-08-07T05:16:51;101209.34;;;13.94;100.00
59787;BME280;45672;51.612;5.536;2023-08-07T05:19:16;101211.34;;;14.01;100.00
59787;BME280;45672;51.612;5.536;2023-08-07T05:21:41;101204.16;;;14.01;100.00
59787;BME280;45672;51.612;5.536;2023-08-07T05:24:07;101209.84;;;13.98;100.00
59787;BME280;45672;51.612;5.536;2023-08-07T05:26:32;101221.72;;;14.04;100.00
59787;BME280;45672;51.612;5.536;2023-08-07T05:28:57;101230.72;;;14.03;100.00
59787;BME280;45672;51.612;5.536;2023-08-07T05:31:24;101231.06;;;14.00;100.00
59787;BME280;45672;51.612;5.536;2023-08-07T05:33:49;101232.25;;;13.97;100.00
59787;BME280;45672;51.612;5.536;2023-08-07T05:36:15;101235.09;;;13.87;100.00
59787;BME280;45672;51.612;5.536;2023-08-07T05:38:40;101234.75;;;13.74;100.00
59787;BME280;45672;51.612;5.536;2023-08-07T05:41:06;101242.59;;;13.75;100.00
59787;BME280;45672;51.612;5.536;2023-08-07T05:43:31;101250.47;;;13.77;100.00
59787;BME280;45672;51.612;5.536;2023-08-07T05:45:57;101248.47;;;13.79;100.00
59787;BME280;45672;51.612;5.536;2023-08-07T05:48:22;101259.19;;;13.87;100.00
59787;BME280;45672;51.612;5.536;2023-08-07T05:50:48;101255.31;;;13.90;100.00
59787;BME280;45672;51.612;5.536;2023-08-07T05:53:13;101256.16;;;13.90;100.00
59787;BME280;45672;51.612;5.536;2023-08-07T05:55:41;101257.81;;;13.91;100.00
59787;BME280;45672;51.612;5.536;2023-08-07T05:58:07;101263.84;;;13.93;100.00
59787;BME280;45672;51.612;5.536;2023-08-07T06:00:32;101262.19;;;13.92;100.00
59787;BME280;45672;51.612;5.536;2023-08-07T06:02:58;101258.00;;;13.90;100.00
59787;BME280;45672;51.612;5.536;2023-08-07T06:05:24;101264.84;;;13.92;100.00
59787;BME280;45672;51.612;5.536;2023-08-07T06:07:49;101263.50;;;13.96;100.00
59787;BME280;45672;51.612;5.536;2023-08-07T06:10:14;101268.53;;;14.00;100.00
59787;BME280;45672;51.612;5.536;2023-08-07T06:12:40;101279.56;;;14.05;100.00
59787;BME280;45672;51.612;5.536;2023-08-07T06:15:05;101271.72;;;14.03;100.00
59787;BME280;45672;51.612;5.536;2023-08-07T06:17:31;101265.84;;;14.00;100.00
59787;BME280;45672;51.612;5.536;2023-08-07T06:19:56;101277.56;;;14.07;100.00
59787;BME280;45672;51.612;5.536;2023-08-07T06:22:22;101280.56;;;14.12;100.00
59787;BME280;45672;51.612;5.536;2023-08-07T06:24:47;101276.91;;;14.13;100.00
59787;BME280;45672;51.612;5.536;2023-08-07T06:27:12;101286.09;;;14.19;100.00
59787;BME280;45672;51.612;5.536;2023-08-07T06:29:37;101280.56;;;14.20;100.00
59787;BME280;45672;51.612;5.536;2023-08-07T06:32:03;101292.09;;;14.21;100.00
59787;BME280;45672;51.612;5.536;2023-08-07T06:34:29;101293.63;;;14.23;100.00
59787;BME280;45672;51.612;5.536;2023-08-07T06:36:54;101288.78;;;14.19;100.00
59787;BME280;45672;51.612;5.536;2023-08-07T06:39:19;101301.31;;;14.26;100.00
59787;BME280;45672;51.612;5.536;2023-08-07T06:41:45;101296.47;;;14.30;100.00
59787;BME280;45672;51.612;5.536;2023-08-07T06:44:11;101297.13;;;14.32;100.00
59787;BME280;45672;51.612;5.536;2023-08-07T06:46:36;101300.97;;;14.38;100.00
59787;BME280;45672;51.612;5.536;2023-08-07T06:49:01;101302.94;;;14.44;100.00
59787;BME280;45672;51.612;5.536;2023-08-07T06:51:26;101295.91;;;14.59;100.00
59787;BME280;45672;51.612;5.536;2023-08-07T06:53:52;101302.44;;;14.73;100.00
59787;BME280;45672;51.612;5.536;2023-08-07T06:56:17;101304.59;;;14.86;100.00
59787;BME280;45672;51.612;5.536;2023-08-07T06:58:43;101301.94;;;15.17;100.00
59787;BME280;45672;51.612;5.536;2023-08-07T07:01:08;101303.31;;;15.45;100.00
59787;BME280;45672;51.612;5.536;2023-08-07T07:03:35;101311.59;;;15.66;100.00
59787;BME280;45672;51.612;5.536;2023-08-07T07:06:00;101310.34;;;15.77;100.00
59787;BME280;45672;51.612;5.536;2023-08-07T07:08:25;101327.34;;;15.69;100.00
59787;BME280;45672;51.612;5.536;2023-08-07T07:10:51;101338.22;;;15.76;100.00
59787;BME280;45672;51.612;5.536;2023-08-07T07:13:16;101336.03;;;15.80;100.00
59787;BME280;45672;51.612;5.536;2023-08-07T07:15:41;101339.97;;;15.92;100.00
59787;BME280;45672;51.612;5.536;2023-08-07T07:18:07;101345.69;;;15.89;100.00
59787;BME280;45672;51.612;5.536;2023-08-07T07:20:33;101350.78;;;15.76;100.00
59787;BME280;45672;51.612;5.536;2023-08-07T07:22:58;101359.66;;;15.76;100.00
59787;BME280;45672;51.612;5.536;2023-08-07T07:25:24;101348.31;;;15.97;100.00
59787;BME280;45672;51.612;5.536;2023-08-07T07:27:49;101346.84;;;16.18;100.00
59787;BME280;45672;51.612;5.536;2023-08-07T07:30:15;101351.97;;;16.28;100.00
59787;BME280;45672;51.612;5.536;2023-08-07T07:32:40;101371.59;;;16.28;100.00
59787;BME280;45672;51.612;5.536;2023-08-07T07:35:05;101361.25;;;16.40;100.00
59787;BME280;45672;51.612;5.536;2023-08-07T07:37:31;101368.34;;;16.71;100.00
59787;BME280;45672;51.612;5.536;2023-08-07T07:39:57;101373.66;;;16.79;100.00
59787;BME280;45672;51.612;5.536;2023-08-07T07:42:22;101385.66;;;16.68;100.00
59787;BME280;45672;51.612;5.536;2023-08-07T07:44:47;101388.03;;;16.48;100.00
59787;BME280;45672;51.612;5.536;2023-08-07T07:47:13;101398.72;;;16.10;100.00
59787;BME280;45672;51.612;5.536;2023-08-07T07:49:38;101403.47;;;15.68;100.00
59787;BME280;45672;51.612;5.536;2023-08-07T07:52:04;101404.75;;;15.41;100.00
59787;BME280;45672;51.612;5.536;2023-08-07T07:54:30;101393.94;;;15.18;100.00
59787;BME280;45672;51.612;5.536;2023-08-07T07:56:56;101403.53;;;15.04;100.00
59787;BME280;45672;51.612;5.536;2023-08-07T07:59:21;101408.38;;;14.92;100.00
59787;BME280;45672;51.612;5.536;2023-08-07T08:01:46;101403.38;;;14.81;100.00
59787;BME280;45672;51.612;5.536;2023-08-07T08:04:12;101393.00;;;14.78;100.00
59787;BME280;45672;51.612;5.536;2023-08-07T08:06:37;101392.34;;;14.84;100.00
59787;BME280;45672;51.612;5.536;2023-08-07T08:09:03;101403.34;;;14.97;100.00
59787;BME280;45672;51.612;5.536;2023-08-07T08:11:30;101400.47;;;15.15;100.00
59787;BME280;45672;51.612;5.536;2023-08-07T08:13:55;101404.59;;;15.74;100.00
59787;BME280;45672;51.612;5.536;2023-08-07T08:16:20;101403.81;;;17.64;100.00
59787;BME280;45672;51.612;5.536;2023-08-07T08:18:46;101410.09;;;20.40;100.00
59787;BME280;45672;51.612;5.536;2023-08-07T08:21:11;101418.94;;;23.07;85.21
59787;BME280;45672;51.612;5.536;2023-08-07T08:23:37;101423.38;;;25.02;68.42
59787;BME280;45672;51.612;5.536;2023-08-07T08:26:02;101431.84;;;26.23;60.70
59787;BME280;45672;51.612;5.536;2023-08-07T08:28:27;101433.13;;;27.22;56.46
59787;BME280;45672;51.612;5.536;2023-08-07T08:30:53;101433.91;;;28.38;55.58
59787;BME280;45672;51.612;5.536;2023-08-07T08:33:18;101433.72;;;29.31;50.54
59787;BME280;45672;51.612;5.536;2023-08-07T08:35:43;101430.28;;;29.61;46.43
59787;BME280;45672;51.612;5.536;2023-08-07T08:38:09;101443.25;;;29.81;44.77
59787;BME280;45672;51.612;5.536;2023-08-07T08:40:35;101438.38;;;30.09;43.23
59787;BME280;45672;51.612;5.536;2023-08-07T08:43:04;101434.28;;;30.68;41.68
59787;BME280;45672;51.612;5.536;2023-08-07T08:45:31;101434.00;;;28.86;42.76
59787;BME280;45672;51.612;5.536;2023-08-07T08:48:02;101431.03;;;26.90;48.76
59787;BME280;45672;51.612;5.536;2023-08-07T08:50:29;101420.03;;;25.36;51.40
59787;BME280;45672;51.612;5.536;2023-08-07T08:52:56;101440.94;;;24.10;55.25
59787;BME280;45672;51.612;5.536;2023-08-07T08:55:22;101439.13;;;23.36;57.41
59787;BME280;45672;51.612;5.536;2023-08-07T08:57:48;101436.38;;;24.22;56.63
59787;BME280;45672;51.612;5.536;2023-08-07T09:00:15;101443.56;;;25.94;48.01
59787;BME280;45672;51.612;5.536;2023-08-07T09:02:44;101445.81;;;28.92;43.00
59787;BME280;45672;51.612;5.536;2023-08-07T09:05:09;101451.22;;;31.32;34.13
59787;BME280;45672;51.612;5.536;2023-08-07T09:07:35;101450.25;;;32.81;31.78
59787;BME280;45672;51.612;5.536;2023-08-07T09:10:02;101443.81;;;33.64;30.57
59787;BME280;45672;51.612;5.536;2023-08-07T09:12:29;101449.97;;;33.99;30.64
59787;BME280;45672;51.612;5.536;2023-08-07T09:14:57;101459.16;;;34.46;29.99
59787;BME280;45672;51.612;5.536;2023-08-07T09:17:24;101465.13;;;34.53;26.26
59787;BME280;45672;51.612;5.536;2023-08-07T09:19:52;101453.19;;;34.72;26.31
59787;BME280;45672;51.612;5.536;2023-08-07T09:22:19;101463.16;;;34.54;25.66
59787;BME280;45672;51.612;5.536;2023-08-07T09:24:45;101448.06;;;33.56;26.60
59787;BME280;45672;51.612;5.536;2023-08-07T09:27:11;101457.78;;;33.00;26.18
59787;BME280;45672;51.612;5.536;2023-08-07T09:29:36;101452.34;;;33.19;26.16
59787;BME280;45672;51.612;5.536;2023-08-07T09:32:14;101472.69;;;32.99;26.43
59787;BME280;45672;51.612;5.536;2023-08-07T09:34:40;101463.31;;;33.00;27.22
59787;BME280;45672;51.612;5.536;2023-08-07T09:37:07;101461.47;;;33.14;28.02
59787;BME280;45672;51.612;5.536;2023-08-07T09:39:32;101469.13;;;31.14;28.82
59787;BME280;45672;51.612;5.536;2023-08-07T09:41:57;101463.75;;;29.58;32.02
59787;BME280;45672;51.612;5.536;2023-08-07T09:44:23;101465.06;;;30.81;30.28
59787;BME280;45672;51.612;5.536;2023-08-07T09:46:48;101469.91;;;32.40;28.09
59787;BME280;45672;51.612;5.536;2023-08-07T09:49:13;101468.59;;;33.69;25.20
59787;BME280;45672;51.612;5.536;2023-08-07T09:51:43;101477.03;;;34.35;25.71
59787;BME280;45672;51.612;5.536;2023-08-07T09:54:09;101476.47;;;34.85;23.01
59787;BME280;45672;51.612;5.536;2023-08-07T09:56:35;101471.72;;;34.72;22.45
59787;BME280;45672;51.612;5.536;2023-08-07T09:59:00;101484.28;;;35.25;23.37
59787;BME280;45672;51.612;5.536;2023-08-07T10:01:26;101468.03;;;34.76;23.05
59787;BME280;45672;51.612;5.536;2023-08-07T10:03:51;101471.94;;;33.66;24.18
59787;BME280;45672;51.612;5.536;2023-08-07T10:06:17;101482.88;;;33.76;24.60
59787;BME280;45672;51.612;5.536;2023-08-07T10:08:45;101481.00;;;33.91;23.69
59787;BME280;45672;51.612;5.536;2023-08-07T10:11:11;101484.44;;;33.82;22.55
59787;BME280;45672;51.612;5.536;2023-08-07T10:13:37;101481.94;;;34.57;22.37
59787;BME280;45672;51.612;5.536;2023-08-07T10:16:03;101480.28;;;34.89;21.83
59787;BME280;45672;51.612;5.536;2023-08-07T10:18:29;101480.19;;;35.22;21.80
59787;BME280;45672;51.612;5.536;2023-08-07T10:20:55;101485.81;;;35.03;21.38
59787;BME280;45672;51.612;5.536;2023-08-07T10:23:23;101489.31;;;34.62;21.99
59787;BME280;45672;51.612;5.536;2023-08-07T10:25:50;101502.31;;;35.22;21.50
59787;BME280;45672;51.612;5.536;2023-08-07T10:28:18;101485.84;;;34.37;22.48
59787;BME280;45672;51.612;5.536;2023-08-07T10:30:45;101486.53;;;34.29;23.05
59787;BME280;45672;51.612;5.536;2023-08-07T10:33:12;101504.56;;;34.21;23.15
59787;BME280;45672;51.612;5.536;2023-08-07T10:35:45;101512.78;;;35.11;23.77
59787;BME280;45672;51.612;5.536;2023-08-07T10:38:12;101507.19;;;34.50;21.05
59787;BME280;45672;51.612;5.536;2023-08-07T10:43:23;101500.75;;;29.61;27.22
59787;BME280;45672;51.612;5.536;2023-08-07T10:45:49;101495.50;;;28.14;28.90
59787;BME280;45672;51.612;5.536;2023-08-07T10:48:18;101495.53;;;27.13;31.71
59787;BME280;45672;51.612;5.536;2023-08-07T10:53:39;101501.47;;;25.61;33.10
59787;BME280;45672;51.612;5.536;2023-08-07T10:56:08;101487.16;;;25.18;36.57
59787;BME280;45672;51.612;5.536;2023-08-07T10:58:36;101496.88;;;25.14;34.69
59787;BME280;45672;51.612;5.536;2023-08-07T11:03:57;101502.09;;;25.04;35.01
59787;BME280;45672;51.612;5.536;2023-08-07T11:06:28;101507.53;;;25.04;36.21
59787;BME280;45672;51.612;5.536;2023-08-07T11:08:56;101497.22;;;24.94;34.16
59787;BME280;45672;51.612;5.536;2023-08-07T11:11:21;101503.28;;;24.54;35.70
59787;BME280;45672;51.612;5.536;2023-08-07T11:13:46;101498.03;;;24.10;36.64
59787;BME280;45672;51.612;5.536;2023-08-07T11:16:12;101500.56;;;23.93;38.10
59787;BME280;45672;51.612;5.536;2023-08-07T11:18:38;101502.44;;;23.92;38.17
59787;BME280;45672;51.612;5.536;2023-08-07T11:21:07;101504.31;;;23.73;37.65
59787;BME280;45672;51.612;5.536;2023-08-07T11:23:33;101499.31;;;23.52;36.84
59787;BME280;45672;51.612;5.536;2023-08-07T11:25:58;101514.34;;;23.36;38.32
59787;BME280;45672;51.612;5.536;2023-08-07T11:28:24;101505.66;;;23.27;37.70
59787;BME280;45672;51.612;5.536;2023-08-07T11:30:52;101498.78;;;23.24;38.49
59787;BME280;45672;51.612;5.536;2023-08-07T11:33:18;101497.66;;;23.07;37.10
59787;BME280;45672;51.612;5.536;2023-08-07T11:35:45;101506.81;;;22.87;39.17
59787;BME280;45672;51.612;5.536;2023-08-07T11:38:15;101516.44;;;22.83;37.45
59787;BME280;45672;51.612;5.536;2023-08-07T11:40:53;101508.41;;;22.95;38.21
59787;BME280;45672;51.612;5.536;2023-08-07T11:43:18;101506.09;;;22.67;36.30
59787;BME280;45672;51.612;5.536;2023-08-07T11:45:43;101508.03;;;22.60;38.35
59787;BME280;45672;51.612;5.536;2023-08-07T11:48:09;101486.03;;;22.43;37.94
59787;BME280;45672;51.612;5.536;2023-08-07T11:50:35;101509.97;;;22.52;38.17
59787;BME280;45672;51.612;5.536;2023-08-07T11:53:00;101505.59;;;22.51;38.14
59787;BME280;45672;51.612;5.536;2023-08-07T11:55:28;101503.72;;;22.52;38.70
59787;BME280;45672;51.612;5.536;2023-08-07T11:57:53;101503.88;;;22.57;38.04
59787;BME280;45672;51.612;5.536;2023-08-07T12:00:19;101498.66;;;22.55;36.80
59787;BME280;45672;51.612;5.536;2023-08-07T12:02:45;101503.31;;;22.48;36.13
59787;BME280;45672;51.612;5.536;2023-08-07T12:05:11;101492.97;;;22.32;36.75
59787;BME280;45672;51.612;5.536;2023-08-07T12:07:38;101497.53;;;22.38;36.67
59787;BME280;45672;51.612;5.536;2023-08-07T12:10:07;101502.16;;;22.37;37.54
59787;BME280;45672;51.612;5.536;2023-08-07T12:12:34;101492.94;;;22.38;38.64
59787;BME280;45672;51.612;5.536;2023-08-07T12:14:59;101492.31;;;22.43;38.71
59787;BME280;45672;51.612;5.536;2023-08-07T12:17:25;101499.22;;;22.39;39.45
59787;BME280;45672;51.612;5.536;2023-08-07T12:19:50;101512.09;;;22.44;39.03
59787;BME280;45672;51.612;5.536;2023-08-07T12:22:19;101509.53;;;22.55;38.75
59787;BME280;45672;51.612;5.536;2023-08-07T12:24:45;101497.31;;;22.40;37.58
59787;BME280;45672;51.612;5.536;2023-08-07T12:27:10;101504.00;;;22.37;37.73
59787;BME280;45672;51.612;5.536;2023-08-07T12:29:36;101505.88;;;22.43;37.48
59787;BME280;45672;51.612;5.536;2023-08-07T12:32:02;101508.72;;;22.48;37.56
59787;BME280;45672;51.612;5.536;2023-08-07T12:34:28;101505.91;;;22.36;37.47
59787;BME280;45672;51.612;5.536;2023-08-07T12:36:53;101508.25;;;22.19;36.71
59787;BME280;45672;51.612;5.536;2023-08-07T12:39:19;101505.53;;;22.19;37.24
59787;BME280;45672;51.612;5.536;2023-08-07T12:41:46;101509.88;;;22.34;37.70
59787;BME280;45672;51.612;5.536;2023-08-07T12:44:11;101505.88;;;22.43;39.00
59787;BME280;45672;51.612;5.536;2023-08-07T12:46:37;101511.38;;;22.23;38.59